sensor_id;sensor_type;location;lat;lon;timestamp;P1;durP1;ratioP1;P2;durP2;ratioP2
16662;SDS011;8445;51.270;9.434;2023-09-19T00:02:28;6.75;;;6.30;;
16662;SDS011;8445;51.270;9.434;2023-09-19T00:05:15;6.55;;;6.00;;
16662;SDS011;8445;51.270;9.434;2023-09-19T00:08:02;6.70;;;6.18;;
16662;SDS011;8445;51.270;9.434;2023-09-19T00:10:40;6.70;;;6.03;;
16662;SDS011;8445;51.270;9.434;2023-09-19T00:13:34;6.63;;;6.00;;
16662;SDS011;8445;51.270;9.434;2023-09-19T00:16:29;6.60;;;6.07;;
16662;SDS011;8445;51.270;9.434;2023-09-19T00:19:10;6.47;;;5.82;;
16662;SDS011;8445;51.270;9.434;2023-09-19T00:22:13;6.43;;;6.03;;
16662;SDS011;8445;51.270;9.434;2023-09-19T00:25:09;6.78;;;6.38;;
16662;SDS011;8445;51.270;9.434;2023-09-19T00:27:57;6.60;;;6.20;;
16662;SDS011;8445;51.270;9.434;2023-09-19T00:30:37;6.80;;;6.30;;
16662;SDS011;8445;51.270;9.434;2023-09-19T00:33:30;6.68;;;6.10;;
16662;SDS011;8445;51.270;9.434;2023-09-19T00:36:17;6.38;;;5.97;;
16662;SDS011;8445;51.270;9.434;2023-09-19T00:39:20;6.70;;;6.20;;
16662;SDS011;8445;51.270;9.434;2023-09-19T00:42:42;6.47;;;6.00;;
16662;SDS011;8445;51.270;9.434;2023-09-19T00:45:18;8.07;;;7.38;;
16662;SDS011;8445;51.270;9.434;2023-09-19T00:47:54;7.25;;;6.75;;
16662;SDS011;8445;51.270;9.434;2023-09-19T00:50:35;6.80;;;6.30;;
16662;SDS011;8445;51.270;9.434;2023-09-19T00:53:26;8.07;;;6.80;;
16662;SDS011;8445;51.270;9.434;2023-09-19T00:55:55;7.05;;;6.47;;
16662;SDS011;8445;51.270;9.434;2023-09-19T00:58:54;7.68;;;6.90;;
16662;SDS011;8445;51.270;9.434;2023-09-19T01:01:27;8.25;;;7.28;;
16662;SDS011;8445;51.270;9.434;2023-09-19T01:04:01;7.22;;;6.57;;
16662;SDS011;8445;51.270;9.434;2023-09-19T01:07:00;8.05;;;7.35;;
16662;SDS011;8445;51.270;9.434;2023-09-19T01:09:51;7.45;;;6.75;;
16662;SDS011;8445;51.270;9.434;2023-09-19T01:21:15;7.53;;;6.93;;
16662;SDS011;8445;51.270;9.434;2023-09-19T01:30:35;11.23;;;7.35;;
16662;SDS011;8445;51.270;9.434;2023-09-19T01:36:38;8.32;;;7.65;;
16662;SDS011;8445;51.270;9.434;2023-09-19T01:39:31;8.13;;;7.45;;
16662;SDS011;8445;51.270;9.434;2023-09-19T01:48:58;6.97;;;6.40;;
16662;SDS011;8445;51.270;9.434;2023-09-19T01:52:12;6.95;;;6.43;;
16662;SDS011;8445;51.270;9.434;2023-09-19T01:54:50;7.25;;;6.75;;
16662;SDS011;8445;51.270;9.434;2023-09-19T02:00:43;6.90;;;6.28;;
16662;SDS011;8445;51.270;9.434;2023-09-19T02:03:24;7.18;;;6.68;;
16662;SDS011;8445;51.270;9.434;2023-09-19T02:05:58;6.80;;;6.20;;
16662;SDS011;8445;51.270;9.434;2023-09-19T02:08:50;7.50;;;6.75;;
16662;SDS011;8445;51.270;9.434;2023-09-19T02:11:24;7.88;;;6.82;;
16662;SDS011;8445;51.270;9.434;2023-09-19T02:13:51;6.97;;;6.47;;
16662;SDS011;8445;51.270;9.434;2023-09-19T02:16:24;7.03;;;6.32;;
16662;SDS011;8445;51.270;9.434;2023-09-19T02:19:00;7.22;;;6.65;;
16662;SDS011;8445;51.270;9.434;2023-09-19T02:21:36;7.93;;;7.13;;
16662;SDS011;8445;51.270;9.434;2023-09-19T02:24:05;7.50;;;6.90;;
16662;SDS011;8445;51.270;9.434;2023-09-19T02:26:42;7.40;;;6.82;;
16662;SDS011;8445;51.270;9.434;2023-09-19T02:29:09;9.57;;;7.30;;
16662;SDS011;8445;51.270;9.434;2023-09-19T02:31:43;8.73;;;7.35;;
16662;SDS011;8445;51.270;9.434;2023-09-19T02:34:15;12.30;;;6.95;;
16662;SDS011;8445;51.270;9.434;2023-09-19T02:36:42;8.13;;;7.60;;
16662;SDS011;8445;51.270;9.434;2023-09-19T02:39:20;7.75;;;7.15;;
16662;SDS011;8445;51.270;9.434;2023-09-19T02:41:50;7.93;;;7.32;;
16662;SDS011;8445;51.270;9.434;2023-09-19T02:44:19;8.52;;;7.72;;
16662;SDS011;8445;51.270;9.434;2023-09-19T02:47:02;8.52;;;7.70;;
16662;SDS011;8445;51.270;9.434;2023-09-19T02:50:14;8.50;;;7.68;;
16662;SDS011;8445;51.270;9.434;2023-09-19T02:53:22;7.82;;;7.13;;
16662;SDS011;8445;51.270;9.434;2023-09-19T02:56:11;8.55;;;7.25;;
16662;SDS011;8445;51.270;9.434;2023-09-19T03:07:59;8.07;;;7.38;;
16662;SDS011;8445;51.270;9.434;2023-09-19T03:18:54;9.15;;;8.30;;
16662;SDS011;8445;51.270;9.434;2023-09-19T03:26:15;8.60;;;7.60;;
16662;SDS011;8445;51.270;9.434;2023-09-19T03:30:13;8.70;;;7.60;;
16662;SDS011;8445;51.270;9.434;2023-09-19T03:33:27;10.52;;;7.43;;
16662;SDS011;8445;51.270;9.434;2023-09-19T03:37:06;13.20;;;7.40;;
16662;SDS011;8445;51.270;9.434;2023-09-19T03:40:13;7.47;;;6.75;;
16662;SDS011;8445;51.270;9.434;2023-09-19T03:43:29;9.10;;;6.93;;
16662;SDS011;8445;51.270;9.434;2023-09-19T03:46:51;8.63;;;7.32;;
16662;SDS011;8445;51.270;9.434;2023-09-19T03:50:10;11.90;;;6.80;;
16662;SDS011;8445;51.270;9.434;2023-09-19T03:53:49;8.23;;;7.05;;
16662;SDS011;8445;51.270;9.434;2023-09-19T04:00:25;7.10;;;6.60;;
16662;SDS011;8445;51.270;9.434;2023-09-19T04:04:04;9.45;;;6.47;;
16662;SDS011;8445;51.270;9.434;2023-09-19T04:11:33;7.45;;;6.85;;
16662;SDS011;8445;51.270;9.434;2023-09-19T04:15:22;10.63;;;7.18;;
16662;SDS011;8445;51.270;9.434;2023-09-19T04:19:13;6.97;;;6.35;;
16662;SDS011;8445;51.270;9.434;2023-09-19T04:22:24;7.88;;;7.20;;
16662;SDS011;8445;51.270;9.434;2023-09-19T04:29:38;9.05;;;6.78;;
16662;SDS011;8445;51.270;9.434;2023-09-19T04:40:56;9.38;;;6.55;;
16662;SDS011;8445;51.270;9.434;2023-09-19T04:46:54;6.93;;;6.20;;
16662;SDS011;8445;51.270;9.434;2023-09-19T04:54:04;8.32;;;7.13;;
16662;SDS011;8445;51.270;9.434;2023-09-19T04:57:29;6.45;;;5.95;;
16662;SDS011;8445;51.270;9.434;2023-09-19T05:00:21;8.10;;;6.15;;
16662;SDS011;8445;51.270;9.434;2023-09-19T05:03:45;8.82;;;6.47;;
16662;SDS011;8445;51.270;9.434;2023-09-19T05:07:39;11.32;;;6.93;;
16662;SDS011;8445;51.270;9.434;2023-09-19T05:11:25;7.78;;;5.88;;
16662;SDS011;8445;51.270;9.434;2023-09-19T05:14:53;9.43;;;6.50;;
16662;SDS011;8445;51.270;9.434;2023-09-19T05:21:00;9.90;;;5.47;;
16662;SDS011;8445;51.270;9.434;2023-09-19T05:38:18;6.72;;;6.07;;
16662;SDS011;8445;51.270;9.434;2023-09-19T05:46:03;10.70;;;6.35;;
16662;SDS011;8445;51.270;9.434;2023-09-19T05:49:48;9.98;;;6.45;;
16662;SDS011;8445;51.270;9.434;2023-09-19T05:52:54;8.05;;;5.65;;
16662;SDS011;8445;51.270;9.434;2023-09-19T05:56:51;9.88;;;5.90;;
16662;SDS011;8445;51.270;9.434;2023-09-19T06:03:46;8.25;;;5.97;;
16662;SDS011;8445;51.270;9.434;2023-09-19T06:18:02;8.80;;;6.28;;
16662;SDS011;8445;51.270;9.434;2023-09-19T06:21:50;8.90;;;6.70;;
16662;SDS011;8445;51.270;9.434;2023-09-19T06:40:43;7.93;;;6.07;;
16662;SDS011;8445;51.270;9.434;2023-09-19T06:54:37;13.18;;;6.32;;
16662;SDS011;8445;51.270;9.434;2023-09-19T06:58:38;9.57;;;5.82;;
16662;SDS011;8445;51.270;9.434;2023-09-19T07:02:35;7.38;;;5.93;;
16662;SDS011;8445;51.270;9.434;2023-09-19T07:06:18;13.88;;;8.82;;
16662;SDS011;8445;51.270;9.434;2023-09-19T07:13:00;9.40;;;6.10;;
16662;SDS011;8445;51.270;9.434;2023-09-19T07:15:31;8.68;;;5.75;;
16662;SDS011;8445;51.270;9.434;2023-09-19T07:19:09;11.07;;;6.03;;
16662;SDS011;8445;51.270;9.434;2023-09-19T07:26:30;11.95;;;6.80;;
16662;SDS011;8445;51.270;9.434;2023-09-19T07:30:36;7.45;;;5.72;;
16662;SDS011;8445;51.270;9.434;2023-09-19T07:34:00;11.40;;;5.82;;
16662;SDS011;8445;51.270;9.434;2023-09-19T07:44:38;6.70;;;5.55;;
16662;SDS011;8445;51.270;9.434;2023-09-19T07:51:31;8.45;;;5.47;;
16662;SDS011;8445;51.270;9.434;2023-09-19T07:54:41;12.77;;;5.78;;
16662;SDS011;8445;51.270;9.434;2023-09-19T08:02:04;7.75;;;5.07;;
16662;SDS011;8445;51.270;9.434;2023-09-19T08:05:12;10.90;;;5.22;;
16662;SDS011;8445;51.270;9.434;2023-09-19T08:07:59;8.52;;;5.30;;
16662;SDS011;8445;51.270;9.434;2023-09-19T08:10:53;6.22;;;5.63;;
16662;SDS011;8445;51.270;9.434;2023-09-19T08:13:51;8.15;;;5.03;;
16662;SDS011;8445;51.270;9.434;2023-09-19T08:17:22;6.43;;;5.20;;
16662;SDS011;8445;51.270;9.434;2023-09-19T08:20:10;7.68;;;5.10;;
16662;SDS011;8445;51.270;9.434;2023-09-19T08:23:39;8.63;;;5.63;;
16662;SDS011;8445;51.270;9.434;2023-09-19T08:26:55;16.48;;;6.35;;
16662;SDS011;8445;51.270;9.434;2023-09-19T08:30:15;10.02;;;5.65;;
16662;SDS011;8445;51.270;9.434;2023-09-19T08:37:58;5.20;;;4.70;;
16662;SDS011;8445;51.270;9.434;2023-09-19T08:41:22;6.97;;;4.78;;
16662;SDS011;8445;51.270;9.434;2023-09-19T08:44:27;12.63;;;5.50;;
16662;SDS011;8445;51.270;9.434;2023-09-19T08:55:04;9.57;;;5.43;;
16662;SDS011;8445;51.270;9.434;2023-09-19T08:57:38;11.35;;;5.53;;
16662;SDS011;8445;51.270;9.434;2023-09-19T09:00:11;9.50;;;5.70;;
16662;SDS011;8445;51.270;9.434;2023-09-19T09:02:46;9.80;;;4.95;;
16662;SDS011;8445;51.270;9.434;2023-09-19T09:05:56;11.82;;;5.88;;
16662;SDS011;8445;51.270;9.434;2023-09-19T09:08:32;6.35;;;5.10;;
16662;SDS011;8445;51.270;9.434;2023-09-19T09:11:04;5.85;;;5.28;;
16662;SDS011;8445;51.270;9.434;2023-09-19T09:13:47;9.48;;;5.78;;
16662;SDS011;8445;51.270;9.434;2023-09-19T09:16:22;8.45;;;5.00;;
16662;SDS011;8445;51.270;9.434;2023-09-19T09:19:04;7.50;;;5.10;;
16662;SDS011;8445;51.270;9.434;2023-09-19T09:21:30;9.60;;;5.35;;
16662;SDS011;8445;51.270;9.434;2023-09-19T09:26:59;7.85;;;4.82;;
16662;SDS011;8445;51.270;9.434;2023-09-19T09:29:43;7.97;;;5.15;;
16662;SDS011;8445;51.270;9.434;2023-09-19T09:32:26;9.10;;;5.22;;
16662;SDS011;8445;51.270;9.434;2023-09-19T09:35:07;5.85;;;5.35;;
16662;SDS011;8445;51.270;9.434;2023-09-19T09:37:42;6.55;;;4.70;;
16662;SDS011;8445;51.270;9.434;2023-09-19T09:40:14;13.45;;;6.45;;
16662;SDS011;8445;51.270;9.434;2023-09-19T09:42:42;6.38;;;5.18;;
16662;SDS011;8445;51.270;9.434;2023-09-19T09:45:34;8.00;;;6.25;;
16662;SDS011;8445;51.270;9.434;2023-09-19T09:48:21;6.00;;;4.93;;
16662;SDS011;8445;51.270;9.434;2023-09-19T09:51:00;7.30;;;5.15;;
16662;SDS011;8445;51.270;9.434;2023-09-19T09:53:31;7.40;;;4.93;;
16662;SDS011;8445;51.270;9.434;2023-09-19T09:56:10;7.93;;;5.45;;
16662;SDS011;8445;51.270;9.434;2023-09-19T09:59:04;8.38;;;5.35;;
16662;SDS011;8445;51.270;9.434;2023-09-19T10:01:46;9.25;;;5.72;;
16662;SDS011;8445;51.270;9.434;2023-09-19T10:04:39;6.28;;;5.28;;
16662;SDS011;8445;51.270;9.434;2023-09-19T10:07:40;11.88;;;5.70;;
16662;SDS011;8445;51.270;9.434;2023-09-19T10:10:36;7.38;;;5.00;;
16662;SDS011;8445;51.270;9.434;2023-09-19T10:13:32;7.38;;;5.03;;
16662;SDS011;8445;51.270;9.434;2023-09-19T10:16:22;7.72;;;5.72;;
16662;SDS011;8445;51.270;9.434;2023-09-19T10:18:51;8.18;;;5.32;;
16662;SDS011;8445;51.270;9.434;2023-09-19T10:21:36;6.28;;;4.90;;
16662;SDS011;8445;51.270;9.434;2023-09-19T10:24:05;6.00;;;4.63;;
16662;SDS011;8445;51.270;9.434;2023-09-19T10:26:36;7.22;;;4.97;;
16662;SDS011;8445;51.270;9.434;2023-09-19T10:29:06;7.75;;;5.22;;
16662;SDS011;8445;51.270;9.434;2023-09-19T10:31:35;7.95;;;5.15;;
16662;SDS011;8445;51.270;9.434;2023-09-19T10:34:06;7.47;;;4.70;;
16662;SDS011;8445;51.270;9.434;2023-09-19T10:36:35;10.15;;;5.22;;
16662;SDS011;8445;51.270;9.434;2023-09-19T10:39:03;8.30;;;4.90;;
16662;SDS011;8445;51.270;9.434;2023-09-19T10:41:34;6.68;;;4.38;;
16662;SDS011;8445;51.270;9.434;2023-09-19T10:44:15;7.05;;;5.30;;
16662;SDS011;8445;51.270;9.434;2023-09-19T10:46:53;12.48;;;5.38;;
16662;SDS011;8445;51.270;9.434;2023-09-19T10:49:24;9.15;;;5.25;;
16662;SDS011;8445;51.270;9.434;2023-09-19T10:52:00;8.82;;;4.78;;
16662;SDS011;8445;51.270;9.434;2023-09-19T10:54:31;7.03;;;4.60;;
16662;SDS011;8445;51.270;9.434;2023-09-19T10:57:22;6.85;;;4.93;;
16662;SDS011;8445;51.270;9.434;2023-09-19T11:00:07;7.75;;;5.85;;
16662;SDS011;8445;51.270;9.434;2023-09-19T11:06:12;8.82;;;5.32;;
16662;SDS011;8445;51.270;9.434;2023-09-19T11:11:50;9.38;;;5.18;;
16662;SDS011;8445;51.270;9.434;2023-09-19T11:30:48;7.25;;;5.10;;
16662;SDS011;8445;51.270;9.434;2023-09-19T11:33:31;8.05;;;5.70;;
16662;SDS011;8445;51.270;9.434;2023-09-19T11:36:11;6.57;;;5.32;;
16662;SDS011;8445;51.270;9.434;2023-09-19T11:46:51;8.50;;;5.15;;
16662;SDS011;8445;51.270;9.434;2023-09-19T11:49:44;6.93;;;5.00;;
16662;SDS011;8445;51.270;9.434;2023-09-19T11:52:56;6.45;;;5.10;;
16662;SDS011;8445;51.270;9.434;2023-09-19T11:55:59;10.85;;;5.93;;
16662;SDS011;8445;51.270;9.434;2023-09-19T12:03:11;6.13;;;4.57;;
16662;SDS011;8445;51.270;9.434;2023-09-19T12:10:02;9.82;;;5.88;;
16662;SDS011;8445;51.270;9.434;2023-09-19T12:13:19;9.30;;;6.78;;
16662;SDS011;8445;51.270;9.434;2023-09-19T12:16:33;7.22;;;5.95;;
16662;SDS011;8445;51.270;9.434;2023-09-19T12:20:26;12.20;;;5.70;;
16662;SDS011;8445;51.270;9.434;2023-09-19T12:23:39;5.15;;;4.55;;
16662;SDS011;8445;51.270;9.434;2023-09-19T12:27:24;12.80;;;5.53;;
16662;SDS011;8445;51.270;9.434;2023-09-19T12:30:14;7.90;;;4.72;;
16662;SDS011;8445;51.270;9.434;2023-09-19T12:52:32;9.57;;;6.05;;
16662;SDS011;8445;51.270;9.434;2023-09-19T12:55:47;5.97;;;5.38;;
16662;SDS011;8445;51.270;9.434;2023-09-19T12:59:12;4.82;;;4.40;;
16662;SDS011;8445;51.270;9.434;2023-09-19T13:02:24;7.95;;;5.70;;
16662;SDS011;8445;51.270;9.434;2023-09-19T13:09:17;5.25;;;4.80;;
16662;SDS011;8445;51.270;9.434;2023-09-19T13:12:51;6.43;;;5.13;;
16662;SDS011;8445;51.270;9.434;2023-09-19T13:16:22;6.35;;;5.75;;
16662;SDS011;8445;51.270;9.434;2023-09-19T13:27:17;7.88;;;5.00;;
16662;SDS011;8445;51.270;9.434;2023-09-19T13:31:00;8.00;;;4.97;;
16662;SDS011;8445;51.270;9.434;2023-09-19T13:34:06;4.95;;;4.43;;
16662;SDS011;8445;51.270;9.434;2023-09-19T13:37:27;6.25;;;5.22;;
16662;SDS011;8445;51.270;9.434;2023-09-19T13:40:25;5.60;;;5.05;;
16662;SDS011;8445;51.270;9.434;2023-09-19T13:43:13;8.18;;;5.57;;
16662;SDS011;8445;51.270;9.434;2023-09-19T13:46:07;8.27;;;6.05;;
16662;SDS011;8445;51.270;9.434;2023-09-19T13:49:09;8.88;;;5.50;;
16662;SDS011;8445;51.270;9.434;2023-09-19T13:51:54;7.13;;;5.20;;
16662;SDS011;8445;51.270;9.434;2023-09-19T13:54:54;8.05;;;5.20;;
16662;SDS011;8445;51.270;9.434;2023-09-19T13:57:48;6.55;;;5.22;;
16662;SDS011;8445;51.270;9.434;2023-09-19T14:00:35;6.28;;;5.30;;
16662;SDS011;8445;51.270;9.434;2023-09-19T14:03:52;6.18;;;5.22;;
16662;SDS011;8445;51.270;9.434;2023-09-19T14:21:58;9.18;;;6.20;;
16662;SDS011;8445;51.270;9.434;2023-09-19T14:24:40;9.45;;;6.57;;
16662;SDS011;8445;51.270;9.434;2023-09-19T14:27:46;7.82;;;5.90;;
16662;SDS011;8445;51.270;9.434;2023-09-19T14:31:17;8.85;;;5.53;;
16662;SDS011;8445;51.270;9.434;2023-09-19T14:38:09;8.48;;;6.10;;
16662;SDS011;8445;51.270;9.434;2023-09-19T14:42:05;7.55;;;6.40;;
16662;SDS011;8445;51.270;9.434;2023-09-19T14:48:46;9.07;;;6.60;;
16662;SDS011;8445;51.270;9.434;2023-09-19T14:52:00;8.75;;;6.70;;
16662;SDS011;8445;51.270;9.434;2023-09-19T14:58:31;9.18;;;6.38;;
16662;SDS011;8445;51.270;9.434;2023-09-19T15:05:37;6.88;;;6.03;;
16662;SDS011;8445;51.270;9.434;2023-09-19T15:12:42;8.23;;;5.90;;
16662;SDS011;8445;51.270;9.434;2023-09-19T15:16:28;5.70;;;5.20;;
16662;SDS011;8445;51.270;9.434;2023-09-19T15:27:06;7.65;;;5.80;;
16662;SDS011;8445;51.270;9.434;2023-09-19T15:35:00;6.35;;;5.13;;
16662;SDS011;8445;51.270;9.434;2023-09-19T15:37:43;9.05;;;5.28;;
16662;SDS011;8445;51.270;9.434;2023-09-19T15:40:10;6.03;;;5.30;;
16662;SDS011;8445;51.270;9.434;2023-09-19T15:42:40;7.35;;;5.43;;
16662;SDS011;8445;51.270;9.434;2023-09-19T15:45:14;6.00;;;5.50;;
16662;SDS011;8445;51.270;9.434;2023-09-19T15:47:41;6.65;;;4.93;;
16662;SDS011;8445;51.270;9.434;2023-09-19T15:50:13;7.35;;;5.25;;
16662;SDS011;8445;51.270;9.434;2023-09-19T15:52:42;5.22;;;4.78;;
16662;SDS011;8445;51.270;9.434;2023-09-19T15:55:12;5.70;;;5.10;;
16662;SDS011;8445;51.270;9.434;2023-09-19T15:57:43;5.68;;;5.07;;
16662;SDS011;8445;51.270;9.434;2023-09-19T16:00:14;8.77;;;4.40;;
16662;SDS011;8445;51.270;9.434;2023-09-19T16:02:52;9.55;;;5.05;;
16662;SDS011;8445;51.270;9.434;2023-09-19T16:05:20;6.82;;;4.78;;
16662;SDS011;8445;51.270;9.434;2023-09-19T16:07:50;6.50;;;4.38;;
16662;SDS011;8445;51.270;9.434;2023-09-19T16:10:21;7.13;;;4.90;;
16662;SDS011;8445;51.270;9.434;2023-09-19T16:12:51;6.68;;;4.43;;
16662;SDS011;8445;51.270;9.434;2023-09-19T16:15:17;8.10;;;4.97;;
16662;SDS011;8445;51.270;9.434;2023-09-19T16:17:46;6.45;;;5.07;;
16662;SDS011;8445;51.270;9.434;2023-09-19T16:20:35;7.03;;;4.25;;
16662;SDS011;8445;51.270;9.434;2023-09-19T16:23:05;6.80;;;4.35;;
16662;SDS011;8445;51.270;9.434;2023-09-19T16:26:10;6.47;;;4.85;;
16662;SDS011;8445;51.270;9.434;2023-09-19T16:28:47;5.05;;;4.63;;
16662;SDS011;8445;51.270;9.434;2023-09-19T16:31:29;5.60;;;4.40;;
16662;SDS011;8445;51.270;9.434;2023-09-19T16:33:58;7.40;;;5.00;;
16662;SDS011;8445;51.270;9.434;2023-09-19T16:36:38;7.07;;;5.03;;
16662;SDS011;8445;51.270;9.434;2023-09-19T16:39:48;7.35;;;4.88;;
16662;SDS011;8445;51.270;9.434;2023-09-19T16:42:37;8.30;;;5.03;;
16662;SDS011;8445;51.270;9.434;2023-09-19T16:45:19;8.05;;;4.68;;
16662;SDS011;8445;51.270;9.434;2023-09-19T16:48:04;6.60;;;5.20;;
16662;SDS011;8445;51.270;9.434;2023-09-19T16:50:36;8.43;;;5.43;;
16662;SDS011;8445;51.270;9.434;2023-09-19T16:53:43;5.43;;;4.90;;
16662;SDS011;8445;51.270;9.434;2023-09-19T16:56:20;9.88;;;4.93;;
16662;SDS011;8445;51.270;9.434;2023-09-19T16:58:54;7.63;;;5.40;;
16662;SDS011;8445;51.270;9.434;2023-09-19T17:01:23;12.77;;;4.78;;
16662;SDS011;8445;51.270;9.434;2023-09-19T17:03:56;8.05;;;4.97;;
16662;SDS011;8445;51.270;9.434;2023-09-19T17:06:42;7.03;;;4.72;;
16662;SDS011;8445;51.270;9.434;2023-09-19T17:09:25;5.38;;;4.88;;
16662;SDS011;8445;51.270;9.434;2023-09-19T17:11:53;6.18;;;5.60;;
16662;SDS011;8445;51.270;9.434;2023-09-19T17:14:19;8.15;;;5.65;;
16662;SDS011;8445;51.270;9.434;2023-09-19T17:16:52;7.90;;;5.10;;
16662;SDS011;8445;51.270;9.434;2023-09-19T17:19:23;5.75;;;5.20;;
16662;SDS011;8445;51.270;9.434;2023-09-19T17:21:51;8.95;;;5.80;;
16662;SDS011;8445;51.270;9.434;2023-09-19T17:24:18;5.97;;;5.38;;
16662;SDS011;8445;51.270;9.434;2023-09-19T17:26:52;7.07;;;5.68;;
16662;SDS011;8445;51.270;9.434;2023-09-19T17:29:20;6.53;;;5.90;;
16662;SDS011;8445;51.270;9.434;2023-09-19T17:31:52;11.75;;;6.10;;
16662;SDS011;8445;51.270;9.434;2023-09-19T17:34:22;9.18;;;6.40;;
16662;SDS011;8445;51.270;9.434;2023-09-19T17:36:52;8.48;;;6.20;;
16662;SDS011;8445;51.270;9.434;2023-09-19T17:39:19;6.50;;;5.90;;
16662;SDS011;8445;51.270;9.434;2023-09-19T17:41:51;8.23;;;5.57;;
16662;SDS011;8445;51.270;9.434;2023-09-19T17:44:25;6.97;;;6.18;;
16662;SDS011;8445;51.270;9.434;2023-09-19T17:47:02;7.57;;;6.47;;
16662;SDS011;8445;51.270;9.434;2023-09-19T17:49:33;12.35;;;6.80;;
16662;SDS011;8445;51.270;9.434;2023-09-19T17:52:05;7.95;;;5.60;;
16662;SDS011;8445;51.270;9.434;2023-09-19T17:54:45;5.80;;;5.38;;
16662;SDS011;8445;51.270;9.434;2023-09-19T17:57:33;6.68;;;6.07;;
16662;SDS011;8445;51.270;9.434;2023-09-19T18:00:08;6.68;;;5.78;;
16662;SDS011;8445;51.270;9.434;2023-09-19T18:02:40;10.38;;;6.60;;
16662;SDS011;8445;51.270;9.434;2023-09-19T18:05:21;7.55;;;6.82;;
16662;SDS011;8445;51.270;9.434;2023-09-19T18:07:54;7.53;;;5.88;;
16662;SDS011;8445;51.270;9.434;2023-09-19T18:10:36;7.03;;;6.20;;
16662;SDS011;8445;51.270;9.434;2023-09-19T18:13:03;7.05;;;5.63;;
16662;SDS011;8445;51.270;9.434;2023-09-19T18:15:32;6.55;;;5.65;;
16662;SDS011;8445;51.270;9.434;2023-09-19T18:18:06;8.85;;;6.95;;
16662;SDS011;8445;51.270;9.434;2023-09-19T18:20:33;8.77;;;6.30;;
16662;SDS011;8445;51.270;9.434;2023-09-19T18:23:05;16.80;;;10.35;;
16662;SDS011;8445;51.270;9.434;2023-09-19T18:25:37;6.68;;;6.05;;
16662;SDS011;8445;51.270;9.434;2023-09-19T18:28:06;13.52;;;7.30;;
16662;SDS011;8445;51.270;9.434;2023-09-19T18:30:41;11.52;;;7.53;;
16662;SDS011;8445;51.270;9.434;2023-09-19T18:33:10;7.15;;;6.38;;
16662;SDS011;8445;51.270;9.434;2023-09-19T18:35:40;7.30;;;6.60;;
16662;SDS011;8445;51.270;9.434;2023-09-19T18:38:09;7.43;;;6.50;;
16662;SDS011;8445;51.270;9.434;2023-09-19T18:40:35;6.88;;;6.20;;
16662;SDS011;8445;51.270;9.434;2023-09-19T18:43:13;8.00;;;6.40;;
16662;SDS011;8445;51.270;9.434;2023-09-19T18:45:41;7.43;;;6.72;;
16662;SDS011;8445;51.270;9.434;2023-09-19T18:48:23;7.40;;;6.53;;
16662;SDS011;8445;51.270;9.434;2023-09-19T18:50:52;8.90;;;6.70;;
16662;SDS011;8445;51.270;9.434;2023-09-19T18:53:18;6.55;;;6.05;;
16662;SDS011;8445;51.270;9.434;2023-09-19T18:56:06;9.18;;;6.22;;
16662;SDS011;8445;51.270;9.434;2023-09-19T18:58:49;7.10;;;6.40;;
16662;SDS011;8445;51.270;9.434;2023-09-19T19:01:15;10.40;;;6.70;;
16662;SDS011;8445;51.270;9.434;2023-09-19T19:03:42;8.55;;;6.30;;
16662;SDS011;8445;51.270;9.434;2023-09-19T19:06:12;6.90;;;6.03;;
16662;SDS011;8445;51.270;9.434;2023-09-19T19:08:40;6.53;;;5.82;;
16662;SDS011;8445;51.270;9.434;2023-09-19T19:11:10;7.15;;;6.45;;
16662;SDS011;8445;51.270;9.434;2023-09-19T19:13:41;7.18;;;6.03;;
16662;SDS011;8445;51.270;9.434;2023-09-19T19:16:21;7.63;;;5.78;;
16662;SDS011;8445;51.270;9.434;2023-09-19T19:18:52;6.93;;;6.22;;
16662;SDS011;8445;51.270;9.434;2023-09-19T19:21:21;6.70;;;5.88;;
16662;SDS011;8445;51.270;9.434;2023-09-19T19:23:50;8.55;;;5.75;;
16662;SDS011;8445;51.270;9.434;2023-09-19T19:26:23;7.82;;;5.68;;
16662;SDS011;8445;51.270;9.434;2023-09-19T19:28:59;6.15;;;5.57;;
16662;SDS011;8445;51.270;9.434;2023-09-19T19:31:26;7.38;;;6.10;;
16662;SDS011;8445;51.270;9.434;2023-09-19T19:33:53;8.88;;;5.88;;
16662;SDS011;8445;51.270;9.434;2023-09-19T19:36:26;10.13;;;6.38;;
16662;SDS011;8445;51.270;9.434;2023-09-19T19:39:04;6.63;;;6.03;;
16662;SDS011;8445;51.270;9.434;2023-09-19T19:41:38;12.05;;;6.25;;
16662;SDS011;8445;51.270;9.434;2023-09-19T19:44:30;6.63;;;6.07;;
16662;SDS011;8445;51.270;9.434;2023-09-19T19:47:07;7.70;;;6.53;;
16662;SDS011;8445;51.270;9.434;2023-09-19T19:49:36;9.48;;;5.72;;
16662;SDS011;8445;51.270;9.434;2023-09-19T19:52:03;6.72;;;6.00;;
16662;SDS011;8445;51.270;9.434;2023-09-19T19:54:32;8.20;;;6.57;;
16662;SDS011;8445;51.270;9.434;2023-09-19T19:56:59;10.25;;;8.18;;
16662;SDS011;8445;51.270;9.434;2023-09-19T19:59:25;8.25;;;7.43;;
16662;SDS011;8445;51.270;9.434;2023-09-19T20:01:53;8.88;;;7.25;;
16662;SDS011;8445;51.270;9.434;2023-09-19T20:04:22;12.73;;;7.60;;
16662;SDS011;8445;51.270;9.434;2023-09-19T20:06:56;9.05;;;7.18;;
16662;SDS011;8445;51.270;9.434;2023-09-19T20:09:30;9.85;;;7.07;;
16662;SDS011;8445;51.270;9.434;2023-09-19T20:11:56;10.30;;;7.40;;
16662;SDS011;8445;51.270;9.434;2023-09-19T20:14:24;7.63;;;6.93;;
16662;SDS011;8445;51.270;9.434;2023-09-19T20:16:53;7.57;;;6.85;;
16662;SDS011;8445;51.270;9.434;2023-09-19T20:19:25;8.90;;;6.32;;
16662;SDS011;8445;51.270;9.434;2023-09-19T20:21:58;8.18;;;7.38;;
16662;SDS011;8445;51.270;9.434;2023-09-19T20:24:40;13.05;;;6.90;;
16662;SDS011;8445;51.270;9.434;2023-09-19T20:27:06;7.72;;;6.93;;
16662;SDS011;8445;51.270;9.434;2023-09-19T20:29:35;9.07;;;6.65;;
16662;SDS011;8445;51.270;9.434;2023-09-19T20:32:09;10.90;;;7.13;;
16662;SDS011;8445;51.270;9.434;2023-09-19T20:34:38;8.27;;;7.00;;
16662;SDS011;8445;51.270;9.434;2023-09-19T20:37:07;8.48;;;6.22;;
16662;SDS011;8445;51.270;9.434;2023-09-19T20:39:36;7.95;;;7.20;;
16662;SDS011;8445;51.270;9.434;2023-09-19T20:42:03;7.47;;;6.95;;
16662;SDS011;8445;51.270;9.434;2023-09-19T20:44:30;7.65;;;6.72;;
16662;SDS011;8445;51.270;9.434;2023-09-19T20:46:56;8.18;;;7.00;;
16662;SDS011;8445;51.270;9.434;2023-09-19T20:49:28;9.38;;;7.25;;
16662;SDS011;8445;51.270;9.434;2023-09-19T20:51:54;7.40;;;6.70;;
16662;SDS011;8445;51.270;9.434;2023-09-19T20:54:21;7.50;;;6.32;;
16662;SDS011;8445;51.270;9.434;2023-09-19T20:56:47;6.70;;;6.15;;
16662;SDS011;8445;51.270;9.434;2023-09-19T20:59:15;7.25;;;6.55;;
16662;SDS011;8445;51.270;9.434;2023-09-19T21:01:43;7.10;;;6.43;;
16662;SDS011;8445;51.270;9.434;2023-09-19T21:04:21;8.23;;;6.05;;
16662;SDS011;8445;51.270;9.434;2023-09-19T21:06:55;8.30;;;6.25;;
16662;SDS011;8445;51.270;9.434;2023-09-19T21:09:23;6.18;;;5.60;;
16662;SDS011;8445;51.270;9.434;2023-09-19T21:11:52;6.72;;;6.03;;
16662;SDS011;8445;51.270;9.434;2023-09-19T21:14:29;8.85;;;6.10;;
16662;SDS011;8445;51.270;9.434;2023-09-19T21:16:59;6.30;;;5.57;;
16662;SDS011;8445;51.270;9.434;2023-09-19T21:19:31;7.40;;;6.25;;
16662;SDS011;8445;51.270;9.434;2023-09-19T21:22:06;6.60;;;5.90;;
16662;SDS011;8445;51.270;9.434;2023-09-19T21:24:34;6.30;;;5.80;;
16662;SDS011;8445;51.270;9.434;2023-09-19T21:27:10;14.05;;;6.13;;
16662;SDS011;8445;51.270;9.434;2023-09-19T21:29:43;6.18;;;5.68;;
16662;SDS011;8445;51.270;9.434;2023-09-19T21:32:24;6.30;;;5.78;;
16662;SDS011;8445;51.270;9.434;2023-09-19T21:35:06;6.53;;;5.93;;
16662;SDS011;8445;51.270;9.434;2023-09-19T21:37:40;6.90;;;6.22;;
16662;SDS011;8445;51.270;9.434;2023-09-19T21:40:11;10.43;;;7.75;;
16662;SDS011;8445;51.270;9.434;2023-09-19T21:42:44;7.75;;;6.95;;
16662;SDS011;8445;51.270;9.434;2023-09-19T21:45:13;9.82;;;6.28;;
16662;SDS011;8445;51.270;9.434;2023-09-19T21:47:47;6.75;;;6.07;;
16662;SDS011;8445;51.270;9.434;2023-09-19T21:50:16;6.88;;;6.05;;
16662;SDS011;8445;51.270;9.434;2023-09-19T21:52:55;6.68;;;5.85;;
16662;SDS011;8445;51.270;9.434;2023-09-19T21:55:28;6.70;;;6.10;;
16662;SDS011;8445;51.270;9.434;2023-09-19T21:57:56;8.02;;;6.50;;
16662;SDS011;8445;51.270;9.434;2023-09-19T22:00:30;6.95;;;6.15;;
16662;SDS011;8445;51.270;9.434;2023-09-19T22:03:19;7.25;;;6.43;;